Time;durP1;ratioP1;P1;durP2;ratioP2;P2;SDS_P1;SDS_P2;PMS_P1;PMS_P2;Temp;Humidity;BMP_temperature;BMP_pressure;BME280_temperature;BME280_humidity;BME280_pressure;Samples;Min_cycle;Max_cycle;Signal;HPM_P1;HPM_P2
2022/03/25 00:01:19;;;;;;;21.70;15.10;;;;;;;7.81;69.73;99059.59;4189021;28;20627;-82
2022/03/25 00:03:23;;;;;;;21.50;15.40;;;;;;;7.78;70.11;99063.16;4175393;28;20628;-82
2022/03/25 00:05:26;;;;;;;20.87;15.23;;;;;;;7.73;70.27;99057.31;4174685;28;20628;-82
2022/03/25 00:07:29;;;;;;;22.53;15.10;;;;;;;7.72;69.11;99070.34;4178749;28;20629;-82
2022/03/25 00:09:32;;;;;;;20.37;14.93;;;;;;;7.70;70.30;99067.00;4192344;28;20741;-82
2022/03/25 00:11:37;;;;;;;22.53;14.73;;;;;;;7.66;69.96;99062.81;4193859;28;20648;-82
2022/03/25 00:13:40;;;;;;;19.77;14.97;;;;;;;7.63;69.59;99063.78;4184892;28;20744;-82
2022/03/25 00:15:43;;;;;;;21.37;15.00;;;;;;;7.62;69.87;99069.91;4185074;28;20769;-83
2022/03/25 00:17:46;;;;;;;23.83;14.40;;;;;;;7.59;70.12;99063.97;4203709;28;20635;-82
2022/03/25 00:19:49;;;;;;;25.40;15.60;;;;;;;7.54;70.29;99064.16;4175819;28;20665;-83
2022/03/25 00:21:53;;;;;;;23.30;15.70;;;;;;;7.50;70.94;99065.22;4186186;28;20668;-82
2022/03/25 00:23:56;;;;;;;20.42;14.98;;;;;;;7.48;71.17;99061.81;4185601;28;20636;-83
2022/03/25 00:25:59;;;;;;;21.13;14.43;;;;;;;7.47;70.69;99061.03;4172618;28;21105;-82
2022/03/25 00:28:04;;;;;;;21.33;15.50;;;;;;;7.44;70.48;99059.41;4187564;28;21026;-82
2022/03/25 00:30:09;;;;;;;18.83;14.20;;;;;;;7.41;71.11;99061.28;4192162;28;20733;-83
2022/03/25 00:32:12;;;;;;;20.52;14.60;;;;;;;7.41;70.92;99056.94;4190503;28;20318;-82
2022/03/25 00:34:16;;;;;;;18.30;14.43;;;;;;;7.43;70.56;99054.28;4171551;28;20304;-82
2022/03/25 00:36:21;;;;;;;22.40;15.32;;;;;;;7.41;70.83;99056.09;4174363;28;20630;-82
2022/03/25 00:38:24;;;;;;;21.13;14.63;;;;;;;7.35;70.40;99057.22;4185651;28;20296;-82
2022/03/25 00:40:27;;;;;;;23.30;14.50;;;;;;;7.27;71.01;99058.41;4191201;28;20629;-82
2022/03/25 00:42:30;;;;;;;18.85;14.88;;;;;;;7.23;70.69;99059.41;4185934;28;20194;-82
2022/03/25 00:44:35;;;;;;;17.57;14.00;;;;;;;7.17;70.83;99046.69;4173911;28;20209;-82
2022/03/25 00:46:39;;;;;;;21.73;15.13;;;;;;;7.13;71.07;99045.16;4174107;28;21198;-82
2022/03/25 00:48:43;;;;;;;23.20;14.80;;;;;;;7.16;70.76;99048.44;4174662;28;20727;-82
2022/03/25 00:50:46;;;;;;;20.60;15.13;;;;;;;7.17;70.50;99044.97;4176101;28;20623;-83
2022/03/25 00:52:50;;;;;;;19.08;14.43;;;;;;;7.16;70.74;99040.66;4186040;28;20651;-82
2022/03/25 00:54:54;;;;;;;19.42;14.13;;;;;;;7.17;70.48;99044.09;4176400;28;20689;-82
2022/03/25 00:56:57;;;;;;;20.23;14.70;;;;;;;7.11;70.73;99040.03;4186682;28;20206;-83
2022/03/25 00:59:00;;;;;;;19.67;14.43;;;;;;;7.09;71.23;99048.75;4188342;28;20627;-82
2022/03/25 01:01:07;;;;;;;20.30;15.10;;;;;;;7.04;71.43;99042.91;4172302;28;21379;-82
2022/03/25 01:03:11;;;;;;;21.87;15.50;;;;;;;7.02;71.62;99041.28;4203722;28;20643;-82
2022/03/25 01:05:14;;;;;;;21.95;14.15;;;;;;;6.99;71.75;99036.19;4188819;28;20742;-82
2022/03/25 01:07:18;;;;;;;20.80;14.60;;;;;;;6.89;71.99;99035.72;4175570;28;20203;-82
2022/03/25 01:09:21;;;;;;;17.67;14.35;;;;;;;6.86;71.44;99032.41;4185736;28;20206;-83
2022/03/25 01:11:24;;;;;;;23.15;15.70;;;;;;;6.81;70.98;99031.72;4198720;28;20214;-82
2022/03/25 01:13:32;;;;;;;22.52;14.45;;;;;;;6.80;71.21;99030.88;4189440;28;20305;-82
2022/03/25 01:15:36;;;;;;;19.67;14.27;;;;;;;6.80;71.59;99030.06;4184666;28;20204;-82
2022/03/25 01:17:41;;;;;;;23.48;15.32;;;;;;;6.76;71.42;99031.91;4173044;28;20205;-82
2022/03/25 01:19:44;;;;;;;24.60;14.53;;;;;;;6.77;72.03;99031.00;4187684;28;20205;-82
2022/03/25 01:21:49;;;;;;;20.93;14.73;;;;;;;6.74;71.70;99032.88;4187393;28;20636;-83
2022/03/25 01:23:53;;;;;;;21.63;15.40;;;;;;;6.67;72.43;99028.81;4171946;28;21000;-82
2022/03/25 01:25:56;;;;;;;17.67;13.43;;;;;;;6.59;72.33;99025.69;4192452;28;20733;-82
2022/03/25 01:27:59;;;;;;;21.48;14.82;;;;;;;6.57;72.38;99027.50;4190674;28;20208;-82
2022/03/25 01:30:07;;;;;;;20.65;14.20;;;;;;;6.53;73.07;99025.91;4194431;28;20208;-81
2022/03/25 01:32:12;;;;;;;20.00;13.52;;;;;;;6.52;73.05;99026.81;4186636;28;20220;-83
2022/03/25 01:34:17;;;;;;;22.10;15.50;;;;;;;6.50;73.15;99035.56;4173002;28;20256;-82
2022/03/25 01:36:21;;;;;;;24.38;16.02;;;;;;;6.49;72.84;99034.69;4187923;28;20699;-82
2022/03/25 01:38:25;;;;;;;26.00;15.65;;;;;;;6.49;73.17;99036.44;4187378;28;20204;-82
2022/03/25 01:40:29;;;;;;;24.95;14.93;;;;;;;6.49;72.86;99037.28;4188339;28;20202;-82
2022/03/25 01:42:32;;;;;;;20.52;14.32;;;;;;;6.48;72.82;99034.75;4165409;28;20680;-82
2022/03/25 01:44:36;;;;;;;22.20;16.02;;;;;;;6.45;72.88;99034.88;4186823;28;20226;-82
2022/03/25 01:46:39;;;;;;;23.80;15.95;;;;;;;6.41;73.17;99036.72;4174786;28;20206;-82
2022/03/25 01:48:42;;;;;;;19.80;14.70;;;;;;;6.40;73.09;99035.03;4174472;28;20750;-82
2022/03/25 01:50:48;;;;;;;23.10;14.90;;;;;;;6.37;73.77;99034.31;4191551;28;20679;-82
2022/03/25 01:52:52;;;;;;;22.02;14.32;;;;;;;6.37;73.56;99036.91;4172390;28;20216;-82
2022/03/25 01:54:55;;;;;;;19.15;14.85;;;;;;;6.36;72.69;99032.59;4188106;28;20293;-82
2022/03/25 01:57:01;;;;;;;23.70;16.10;;;;;;;6.34;73.74;99037.84;4175244;28;20636;-82
2022/03/25 01:59:05;;;;;;;22.77;15.05;;;;;;;6.33;73.13;99041.34;4185888;28;20744;-82
2022/03/25 02:01:10;;;;;;;22.00;15.30;;;;;;;6.31;73.55;99035.38;4170424;28;20926;-82
2022/03/25 02:03:14;;;;;;;21.67;15.25;;;;;;;6.35;73.05;99041.31;4183848;28;20211;-82
2022/03/25 02:05:18;;;;;;;22.80;15.52;;;;;;;6.37;72.71;99044.66;4204581;28;20696;-82
2022/03/25 02:07:25;;;;;;;20.92;14.20;;;;;;;6.31;73.66;99037.94;4174959;28;20236;-82
2022/03/25 02:09:28;;;;;;;22.63;15.10;;;;;;;6.27;73.76;99041.56;4167672;28;20212;-82
2022/03/25 02:11:35;;;;;;;21.52;14.75;;;;;;;6.24;73.13;99044.28;4190870;28;20878;-82
2022/03/25 02:13:38;;;;;;;22.10;15.45;;;;;;;6.24;73.54;99040.81;4189192;28;20565;-82
2022/03/25 02:15:43;;;;;;;25.17;16.33;;;;;;;6.24;72.92;99038.22;4172354;28;20229;-82
2022/03/25 02:17:47;;;;;;;22.17;15.82;;;;;;;6.26;73.02;99046.81;4192085;28;20210;-82
2022/03/25 02:19:51;;;;;;;22.45;14.60;;;;;;;6.20;72.84;99041.84;4190460;28;20205;-82
2022/03/25 02:21:55;;;;;;;21.27;15.88;;;;;;;6.16;73.96;99041.13;4177716;28;20890;-82
2022/03/25 02:24:03;;;;;;;20.88;15.18;;;;;;;6.10;73.64;99035.28;4178358;28;20216;-82
2022/03/25 02:26:06;;;;;;;21.63;14.70;;;;;;;6.09;73.88;99041.41;4189818;28;20584;-82
2022/03/25 02:28:10;;;;;;;20.60;14.13;;;;;;;6.08;72.86;99043.13;4191367;28;20644;-82
2022/03/25 02:30:18;;;;;;;24.40;15.65;;;;;;;6.08;73.13;99040.53;4193294;28;20216;-82
2022/03/25 02:32:25;;;;;;;23.77;15.93;;;;;;;6.06;73.88;99038.03;4175983;28;20228;-82
2022/03/25 02:34:29;;;;;;;22.17;15.68;;;;;;;6.02;73.10;99032.16;4177100;28;20705;-84
2022/03/25 02:36:37;;;;;;;25.30;16.25;;;;;;;5.97;73.81;99034.06;4173276;28;20200;-83
2022/03/25 02:38:42;;;;;;;21.08;15.07;;;;;;;5.94;73.29;99038.47;4193211;28;20698;-83
2022/03/25 02:40:45;;;;;;;20.15;14.73;;;;;;;5.89;73.35;99045.56;4174868;28;20210;-83
2022/03/25 02:42:48;;;;;;;22.55;14.68;;;;;;;5.81;73.03;99045.00;4187893;28;20211;-83
2022/03/25 02:44:51;;;;;;;22.25;15.73;;;;;;;5.82;73.00;99044.09;4177245;28;20891;-82
2022/03/25 02:46:54;;;;;;;23.33;15.43;;;;;;;5.78;74.47;99042.50;4200474;28;20345;-83
2022/03/25 02:48:57;;;;;;;22.73;15.55;;;;;;;5.75;74.51;99042.63;4186829;28;20297;-83
2022/03/25 02:51:01;;;;;;;28.13;16.00;;;;;;;5.76;74.39;99034.78;4191649;28;20294;-83
2022/03/25 02:53:05;;;;;;;24.40;15.93;;;;;;;5.78;73.98;99045.09;4191276;28;20607;-83
2022/03/25 02:55:10;;;;;;;24.08;15.13;;;;;;;5.76;73.81;99039.97;4189542;28;20203;-83
2022/03/25 02:57:13;;;;;;;22.17;14.75;;;;;;;5.72;73.90;99042.69;4194392;28;21899;-83
2022/03/25 02:59:16;;;;;;;20.70;14.73;;;;;;;5.69;74.19;99041.03;4192295;28;20216;-84
2022/03/25 03:01:19;;;;;;;25.58;15.45;;;;;;;5.66;75.17;99045.47;4186931;28;20251;-84
2022/03/25 03:03:22;;;;;;;22.67;15.95;;;;;;;5.66;74.80;99045.47;4189397;28;20197;-83
2022/03/25 03:05:33;;;;;;;23.33;16.38;;;;;;;5.66;74.47;99048.06;4185690;28;20209;-83
2022/03/25 03:07:37;;;;;;;23.65;16.60;;;;;;;5.64;75.25;99036.94;4187311;28;20197;-83
2022/03/25 03:09:40;;;;;;;23.98;16.15;;;;;;;5.60;75.37;99037.09;4192723;28;20244;-83
2022/03/25 03:11:45;;;;;;;22.85;15.00;;;;;;;5.56;75.35;99051.00;4189647;28;20199;-83
2022/03/25 03:13:48;;;;;;;22.58;16.10;;;;;;;5.54;74.88;99042.47;4203683;28;20645;-83
2022/03/25 03:15:51;;;;;;;26.58;16.77;;;;;;;5.50;75.75;99041.69;4188073;28;20215;-83
2022/03/25 03:17:54;;;;;;;22.75;15.65;;;;;;;5.49;75.72;99045.19;4192868;28;20312;-84
2022/03/25 03:20:00;;;;;;;23.67;15.77;;;;;;;5.44;75.18;99041.94;4177654;28;20211;-83
2022/03/25 03:22:03;;;;;;;22.95;15.55;;;;;;;5.41;75.19;99043.75;4189824;28;20226;-83
2022/03/25 03:24:07;;;;;;;22.58;15.52;;;;;;;5.37;75.21;99052.53;4171642;28;20752;-83
2022/03/25 03:26:10;;;;;;;23.33;15.50;;;;;;;5.34;75.89;99050.03;4172162;28;20201;-83
2022/03/25 03:28:16;;;;;;;23.30;15.98;;;;;;;5.30;76.33;99044.09;4192498;28;20244;-83
2022/03/25 03:30:20;;;;;;;21.40;14.88;;;;;;;5.31;76.54;99055.31;4189984;28;20210;-83
2022/03/25 03:32:23;;;;;;;22.45;15.70;;;;;;;5.28;75.77;99052.81;4203138;28;20209;-83
2022/03/25 03:34:26;;;;;;;20.88;15.13;;;;;;;5.23;75.38;99045.22;4190431;28;20661;-83
2022/03/25 03:36:29;;;;;;;23.13;15.18;;;;;;;5.21;75.93;99041.81;4193299;28;20201;-83
2022/03/25 03:38:36;;;;;;;21.98;15.85;;;;;;;5.18;75.99;99054.00;4176837;28;21107;-83
2022/03/25 03:40:39;;;;;;;23.65;16.02;;;;;;;5.19;75.82;99041.03;4188556;28;20210;-83
2022/03/25 03:42:44;;;;;;;21.02;15.57;;;;;;;5.18;76.24;99041.91;4187673;28;20713;-83
2022/03/25 03:44:49;;;;;;;25.75;15.95;;;;;;;5.19;76.39;99043.59;4175322;28;20632;-83
2022/03/25 03:46:52;;;;;;;24.30;16.27;;;;;;;5.17;75.53;99037.66;4190116;28;20612;-82
2022/03/25 03:48:55;;;;;;;24.23;15.75;;;;;;;5.17;75.89;99037.66;4206645;28;20213;-83
2022/03/25 03:51:00;;;;;;;34.38;17.23;;;;;;;5.16;76.19;99040.28;4186013;28;20198;-83
2022/03/25 03:53:03;;;;;;;23.20;15.55;;;;;;;5.13;76.01;99030.88;4210413;28;20262;-83
2022/03/25 03:55:09;;;;;;;22.27;15.35;;;;;;;5.09;75.46;99043.09;4176454;28;20207;-83
2022/03/25 03:57:12;;;;;;;24.52;16.13;;;;;;;5.07;75.56;99034.56;4192738;28;21253;-82
2022/03/25 03:59:15;;;;;;;24.02;16.30;;;;;;;5.02;76.08;99033.84;4173327;28;20207;-83
2022/03/25 04:01:20;;;;;;;24.83;16.38;;;;;;;5.00;76.21;99036.47;4191869;28;20241;-83
2022/03/25 04:03:23;;;;;;;25.27;17.25;;;;;;;5.00;75.83;99033.88;4190551;28;20684;-83
2022/03/25 04:05:28;;;;;;;25.40;16.80;;;;;;;4.96;77.16;99040.06;4174647;28;20629;-83
2022/03/25 04:07:31;;;;;;;23.98;15.60;;;;;;;4.95;76.93;99040.13;4176983;28;20666;-83
2022/03/25 04:09:36;;;;;;;24.35;16.17;;;;;;;4.92;76.85;99037.63;4202954;28;20676;-83
2022/03/25 04:11:39;;;;;;;24.13;16.45;;;;;;;4.90;76.84;99035.09;4189763;28;20356;-83
2022/03/25 04:13:44;;;;;;;27.08;16.70;;;;;;;4.87;77.18;99036.91;4191931;28;20279;-84
2022/03/25 04:15:47;;;;;;;25.83;17.00;;;;;;;4.87;76.23;99032.59;4188013;28;20600;-83
2022/03/25 04:17:51;;;;;;;29.38;17.23;;;;;;;4.86;77.01;99038.66;4190450;28;20197;-83
2022/03/25 04:19:54;;;;;;;26.60;17.80;;;;;;;4.92;77.04;99037.63;4187227;28;20711;-83
2022/03/25 04:21:58;;;;;;;25.60;16.38;;;;;;;4.87;76.77;99031.72;4187289;28;20243;-84
2022/03/25 04:24:01;;;;;;;26.20;16.08;;;;;;;4.86;77.05;99040.41;4176877;28;20213;-83
2022/03/25 04:26:05;;;;;;;25.75;16.70;;;;;;;4.84;76.93;99034.41;4190719;28;20217;-83
2022/03/25 04:28:08;;;;;;;24.65;16.02;;;;;;;4.84;76.92;99027.53;4191375;28;20205;-83
2022/03/25 04:30:11;;;;;;;24.00;16.30;;;;;;;4.85;77.16;99031.78;4173218;28;20255;-83
2022/03/25 04:32:14;;;;;;;25.65;16.98;;;;;;;4.83;76.93;99037.91;4186057;28;20583;-83
2022/03/25 04:34:19;;;;;;;28.88;17.58;;;;;;;4.80;77.09;99032.84;4199162;28;20228;-83
2022/03/25 04:36:25;;;;;;;24.60;16.63;;;;;;;4.78;76.73;99032.00;4174609;28;20237;-83
2022/03/25 04:38:28;;;;;;;30.45;18.20;;;;;;;4.75;76.66;99034.69;4174268;28;20199;-83
2022/03/25 04:40:32;;;;;;;26.77;16.95;;;;;;;4.74;76.72;99035.59;4203633;28;20334;-83
2022/03/25 04:42:35;;;;;;;29.13;17.30;;;;;;;4.71;77.66;99036.53;4188590;28;20592;-83
2022/03/25 04:44:38;;;;;;;27.27;17.05;;;;;;;4.68;77.40;99040.94;4189571;28;20201;-83
2022/03/25 04:46:41;;;;;;;26.40;17.70;;;;;;;4.67;76.72;99035.81;4191148;28;20212;-83
2022/03/25 04:48:44;;;;;;;30.90;18.60;;;;;;;4.64;77.35;99035.91;4187834;28;20685;-83
2022/03/25 04:50:49;;;;;;;26.20;16.65;;;;;;;4.59;77.42;99042.97;4173227;28;20211;-83
2022/03/25 04:52:52;;;;;;;25.48;16.55;;;;;;;4.54;77.68;99037.94;4173537;28;20206;-83
2022/03/25 04:54:55;;;;;;;26.08;15.93;;;;;;;4.51;77.63;99032.00;4170521;28;20309;-83
2022/03/25 04:56:58;;;;;;;26.20;16.60;;;;;;;4.50;77.59;99041.50;4205741;28;20246;-83
2022/03/25 04:59:02;;;;;;;26.75;17.45;;;;;;;4.49;76.90;99041.53;4192295;28;20760;-83
2022/03/25 05:01:07;;;;;;;28.52;16.98;;;;;;;4.44;77.56;99039.09;4173182;28;20214;-83
2022/03/25 05:03:13;;;;;;;30.08;17.00;;;;;;;4.42;78.17;99042.59;4189618;28;20201;-83
2022/03/25 05:05:16;;;;;;;29.02;18.67;;;;;;;4.40;77.93;99037.47;4191345;28;20575;-83
2022/03/25 05:07:20;;;;;;;28.55;17.88;;;;;;;4.40;77.80;99044.38;4202706;28;20236;-83
2022/03/25 05:09:23;;;;;;;29.08;17.10;;;;;;;4.37;77.70;99041.88;4189820;28;20209;-83
2022/03/25 05:11:27;;;;;;;29.95;18.42;;;;;;;4.35;77.93;99044.50;4181918;28;20217;-83
2022/03/25 05:13:30;;;;;;;31.90;18.70;;;;;;;4.36;77.28;99047.94;4185120;28;20213;-83
2022/03/25 05:15:33;;;;;;;28.52;18.05;;;;;;;4.37;77.90;99054.78;4189965;28;20223;-83
2022/03/25 05:17:43;;;;;;;27.92;17.27;;;;;;;4.35;78.58;99047.09;4170415;28;20194;-83
2022/03/25 05:19:46;;;;;;;29.80;17.40;;;;;;;4.34;77.96;99049.72;4175006;28;20208;-83
2022/03/25 05:21:49;;;;;;;29.83;18.23;;;;;;;4.30;77.76;99048.97;4185223;28;20646;-83
2022/03/25 05:23:54;;;;;;;31.05;19.30;;;;;;;4.31;78.07;99045.47;4187344;28;20211;-83
2022/03/25 05:25:57;;;;;;;33.03;18.80;;;;;;;4.35;78.36;99052.25;4174765;28;20308;-83
2022/03/25 05:28:03;;;;;;;32.75;19.60;;;;;;;4.33;78.10;99048.88;4190070;28;20209;-83
2022/03/25 05:30:07;;;;;;;31.45;19.73;;;;;;;4.37;78.10;99050.47;4200903;28;20247;-83
2022/03/25 05:32:11;;;;;;;32.00;18.65;;;;;;;4.39;78.04;99053.00;4173683;28;20199;-83
2022/03/25 05:34:14;;;;;;;32.03;18.92;;;;;;;4.40;77.95;99054.72;4191434;28;20236;-83
2022/03/25 05:36:17;;;;;;;31.20;20.08;;;;;;;4.44;78.13;99057.16;4177511;28;20213;-83
2022/03/25 05:38:20;;;;;;;29.02;19.02;;;;;;;4.53;78.06;99056.91;4176632;28;20210;-83
2022/03/25 05:40:26;;;;;;;31.52;18.80;;;;;;;4.62;78.29;99061.78;4174164;28;21293;-83
2022/03/25 05:42:29;;;;;;;30.90;19.50;;;;;;;4.70;77.98;99049.50;4183341;28;20201;-83
2022/03/25 05:44:32;;;;;;;30.58;18.45;;;;;;;4.81;77.77;99047.41;4182350;28;20200;-83
2022/03/25 05:46:36;;;;;;;31.35;19.27;;;;;;;4.91;77.76;99061.75;4188939;28;20214;-83
2022/03/25 05:48:39;;;;;;;28.90;18.90;;;;;;;5.01;77.15;99063.19;4173816;28;20311;-83
2022/03/25 05:50:42;;;;;;;29.02;18.17;;;;;;;5.12;76.66;99056.78;4174015;28;20206;-84
2022/03/25 05:52:45;;;;;;;30.95;19.08;;;;;;;5.21;77.20;99057.31;4172132;28;20217;-83
2022/03/25 05:54:49;;;;;;;33.63;20.50;;;;;;;5.31;76.57;99056.13;4189588;28;20217;-83
2022/03/25 05:56:53;;;;;;;32.83;20.85;;;;;;;5.46;75.80;99063.41;4194410;28;20264;-83
2022/03/25 05:58:56;;;;;;;28.88;18.70;;;;;;;5.62;74.55;99064.56;4169159;28;20566;-83
2022/03/25 06:01:00;;;;;;;31.77;20.48;;;;;;;5.74;75.04;99066.78;4192335;28;20198;-83
2022/03/25 06:03:03;;;;;;;28.23;17.63;;;;;;;5.86;74.62;99074.13;4205975;28;20201;-82
2022/03/25 06:05:08;;;;;;;31.33;19.98;;;;;;;5.95;74.28;99072.06;4175815;28;20276;-83
2022/03/25 06:07:12;;;;;;;32.63;20.42;;;;;;;6.07;73.64;99071.66;4193260;28;20299;-83
2022/03/25 06:09:15;;;;;;;33.13;20.88;;;;;;;6.17;73.70;99073.88;4194624;28;20239;-82
2022/03/25 06:11:18;;;;;;;35.17;20.92;;;;;;;6.31;73.41;99081.97;4185561;28;20248;-82
2022/03/25 06:13:23;;;;;;;29.73;19.55;;;;;;;6.43;72.66;99071.19;4190590;28;20203;-81
2022/03/25 06:15:26;;;;;;;30.77;20.15;;;;;;;6.57;72.53;99076.72;4188099;28;20330;-83
2022/03/25 06:17:29;;;;;;;31.25;21.40;;;;;;;6.70;71.56;99076.19;4188681;28;20620;-82
2022/03/25 06:19:33;;;;;;;32.00;20.95;;;;;;;6.81;71.59;99075.78;4194094;28;20205;-82
2022/03/25 06:21:36;;;;;;;35.50;20.80;;;;;;;6.92;71.05;99079.69;4188011;28;20307;-82
2022/03/25 06:23:39;;;;;;;33.00;20.75;;;;;;;7.03;70.91;99083.53;4193135;28;20221;-82
2022/03/25 06:25:42;;;;;;;34.63;20.38;;;;;;;7.18;70.41;99085.53;4180587;28;20206;-82
2022/03/25 06:27:47;;;;;;;32.60;19.92;;;;;;;7.29;70.29;99090.31;4176836;28;20195;-82
2022/03/25 06:29:51;;;;;;;33.22;20.20;;;;;;;7.48;70.05;99085.16;4191811;28;20201;-82
2022/03/25 06:31:54;;;;;;;30.25;19.65;;;;;;;7.60;69.92;99087.25;4169732;28;20731;-82
2022/03/25 06:33:58;;;;;;;31.38;20.40;;;;;;;7.71;69.98;99090.28;4175961;28;20238;-81
2022/03/25 06:36:01;;;;;;;31.15;19.70;;;;;;;7.86;69.92;99086.19;4174234;28;20746;-81
2022/03/25 06:38:05;;;;;;;27.38;18.83;;;;;;;8.01;68.96;99094.19;4189155;28;20211;-81
2022/03/25 06:40:10;;;;;;;29.92;20.10;;;;;;;8.13;68.08;99094.56;4173261;28;20204;-82
2022/03/25 06:42:13;;;;;;;30.73;20.00;;;;;;;8.17;66.97;99090.06;4171370;28;20253;-82
2022/03/25 06:44:16;;;;;;;33.25;20.38;;;;;;;8.24;68.05;99100.13;4171449;28;20733;-81
2022/03/25 06:46:20;;;;;;;29.05;20.20;;;;;;;8.39;68.34;99102.09;4177930;28;20209;-82
2022/03/25 06:48:24;;;;;;;30.60;19.27;;;;;;;8.58;67.08;99102.94;4183174;28;20670;-82
2022/03/25 06:50:27;;;;;;;29.88;20.30;;;;;;;8.76;67.64;99104.72;4178286;28;20197;-82
2022/03/25 06:52:31;;;;;;;30.10;19.40;;;;;;;8.90;67.10;99102.34;4192902;28;20257;-82
2022/03/25 06:54:34;;;;;;;28.52;18.90;;;;;;;9.02;68.06;99107.81;4185701;28;20207;-82
2022/03/25 06:56:38;;;;;;;29.43;20.03;;;;;;;9.13;67.24;99111.63;4191828;28;20643;-83
2022/03/25 06:58:42;;;;;;;29.55;20.55;;;;;;;9.23;67.86;99104.22;4175608;28;20651;-83
2022/03/25 07:00:46;;;;;;;34.57;19.77;;;;;;;9.34;66.84;99109.81;4173732;28;20191;-84
2022/03/25 07:02:51;;;;;;;33.13;20.52;;;;;;;9.47;67.78;99107.38;4190405;28;20624;-82
2022/03/25 07:04:55;;;;;;;33.13;22.43;;;;;;;9.67;67.56;99114.25;4173619;28;20220;-86
2022/03/25 07:06:59;;;;;;;32.37;21.87;;;;;;;9.84;66.96;99118.53;4175862;28;20639;-86
2022/03/25 07:09:03;;;;;;;27.67;19.07;;;;;;;10.01;66.62;99117.72;4176050;28;20628;-86
2022/03/25 07:11:13;;;;;;;29.52;19.80;;;;;;;10.23;66.48;99121.78;4195752;28;20659;-86
2022/03/25 07:13:16;;;;;;;29.33;19.60;;;;;;;10.41;64.74;99123.47;4179306;28;20256;-86
2022/03/25 07:15:20;;;;;;;30.40;20.00;;;;;;;10.58;64.20;99131.28;4193770;28;20663;-86
2022/03/25 07:17:23;;;;;;;26.60;20.00;;;;;;;10.70;62.84;99135.84;4197100;28;20651;-86
2022/03/25 07:19:28;;;;;;;32.87;20.70;;;;;;;10.70;62.95;99133.25;4180317;28;21462;-86
2022/03/25 07:21:31;;;;;;;28.67;20.50;;;;;;;10.77;62.70;99130.22;4179867;28;20690;-86
2022/03/25 07:23:34;;;;;;;32.23;20.43;;;;;;;10.95;63.13;99137.94;4174454;28;21063;-86
2022/03/25 07:25:37;;;;;;;29.57;20.60;;;;;;;11.15;64.23;99136.88;4176169;28;20629;-87
2022/03/25 07:27:41;;;;;;;29.17;21.80;;;;;;;11.30;65.21;99135.09;4195272;28;20639;-86
2022/03/25 07:29:44;;;;;;;30.00;21.00;;;;;;;11.47;64.50;99139.44;4178906;28;20625;-86
2022/03/25 07:31:47;;;;;;;31.20;20.30;;;;;;;11.64;64.31;99134.13;4189152;28;20684;-86
2022/03/25 07:33:50;;;;;;;27.20;19.97;;;;;;;11.81;62.97;99138.31;4192915;28;20665;-86
2022/03/25 07:35:55;;;;;;;31.13;21.17;;;;;;;11.95;61.56;99135.78;4188848;28;21021;-86
2022/03/25 07:37:58;;;;;;;28.77;21.30;;;;;;;12.11;63.11;99144.41;4174112;28;20733;-86
2022/03/25 07:40:01;;;;;;;30.43;21.53;;;;;;;12.33;63.73;99142.25;4193082;28;20624;-86
2022/03/25 07:42:05;;;;;;;27.57;20.63;;;;;;;12.52;64.36;99148.06;4186762;28;21696;-86
2022/03/25 07:44:08;;;;;;;34.40;24.53;;;;;;;12.68;62.29;99147.91;4184953;28;21210;-86
2022/03/25 07:46:11;;;;;;;32.13;22.50;;;;;;;12.73;62.18;99145.88;4170738;28;20648;-86
2022/03/25 07:48:15;;;;;;;28.47;21.00;;;;;;;12.88;63.72;99144.94;4186077;28;20648;-84
2022/03/25 07:50:20;;;;;;;29.20;21.20;;;;;;;13.06;63.04;99154.31;4191677;28;20635;-84
2022/03/25 07:52:24;;;;;;;30.70;22.03;;;;;;;13.18;62.99;99146.56;4174828;28;20633;-84
2022/03/25 07:54:33;;;;;;;30.53;21.50;;;;;;;13.42;63.18;99149.41;4189337;28;21293;-84
2022/03/25 07:56:36;;;;;;;28.93;22.20;;;;;;;13.64;62.27;99135.69;4195066;28;20660;-84
2022/03/25 07:58:39;;;;;;;27.93;21.60;;;;;;;13.85;61.53;99142.19;4176989;28;20642;-84
2022/03/25 08:00:44;;;;;;;33.40;22.37;;;;;;;14.00;61.70;99150.84;4193029;28;20633;-85
2022/03/25 08:02:50;;;;;;;29.53;22.70;;;;;;;14.19;62.65;99154.81;4194973;28;20617;-84
2022/03/25 08:04:54;;;;;;;33.10;23.57;;;;;;;14.32;61.83;99158.31;4175128;28;20629;-87
2022/03/25 08:06:57;;;;;;;28.27;21.50;;;;;;;14.49;60.99;99156.25;4185162;28;20638;-87
2022/03/25 08:09:02;;;;;;;30.33;22.77;;;;;;;14.64;60.03;99157.84;4188392;28;20637;-87
2022/03/25 08:11:06;;;;;;;31.83;22.23;;;;;;;14.80;59.92;99163.75;4183780;28;21051;-87
2022/03/25 08:13:10;;;;;;;30.27;22.77;;;;;;;14.96;58.83;99169.63;4176391;28;20691;-86
2022/03/25 08:15:13;;;;;;;31.50;24.10;;;;;;;15.08;60.73;99167.00;4186753;28;21308;-87
2022/03/25 08:17:17;;;;;;;32.53;23.63;;;;;;;15.19;60.33;99164.50;4171693;28;20675;-87
2022/03/25 08:19:20;;;;;;;30.53;23.73;;;;;;;15.26;57.99;99165.75;4176576;28;20636;-87
2022/03/25 08:21:23;;;;;;;31.83;24.53;;;;;;;15.35;57.96;99165.09;4191547;28;20667;-87
2022/03/25 08:28:12;;;;;;;30.53;23.30;;;;;;;15.47;59.01;99162.47;4192852;28;20637;-87
2022/03/25 08:30:15;;;;;;;30.60;23.47;;;;;;;15.55;60.80;99168.00;4190232;28;20650;-87
2022/03/25 08:32:19;;;;;;;32.07;23.33;;;;;;;15.70;59.71;99161.66;4194346;28;21088;-87
2022/03/25 08:34:22;;;;;;;32.17;24.23;;;;;;;15.78;57.70;99160.16;4178981;28;20640;-87
2022/03/25 08:36:26;;;;;;;33.57;24.03;;;;;;;15.88;57.00;99163.81;4175106;28;20661;-87
2022/03/25 08:38:29;;;;;;;31.37;24.37;;;;;;;16.03;55.18;99170.59;4176044;28;21053;-87
2022/03/25 08:40:34;;;;;;;33.53;24.07;;;;;;;16.14;55.93;99160.94;4173860;28;20631;-87
2022/03/25 08:42:55;;;;;;;36.17;24.67;;;;;;;16.31;55.73;99162.38;4176373;28;20649;-87
2022/03/25 08:44:58;;;;;;;36.43;24.33;;;;;;;16.44;56.41;99160.50;4172141;28;20691;-87
2022/03/25 08:47:01;;;;;;;34.27;25.87;;;;;;;16.61;58.15;99164.41;4171924;28;20672;-88
2022/03/25 08:49:05;;;;;;;36.43;25.87;;;;;;;16.73;57.95;99165.25;4193185;28;20628;-88
2022/03/25 08:51:08;;;;;;;34.20;25.23;;;;;;;16.83;55.81;99150.44;4191205;28;20632;-87
2022/03/25 08:53:12;;;;;;;33.47;24.93;;;;;;;16.89;55.48;99158.69;4188696;28;20662;-87
2022/03/25 08:55:16;;;;;;;30.83;24.27;;;;;;;16.91;53.26;99154.16;4190364;28;20628;-87
2022/03/25 08:57:19;;;;;;;35.03;25.30;;;;;;;16.96;52.29;99153.78;4170449;28;20657;-87
2022/03/25 08:59:24;;;;;;;33.83;24.40;;;;;;;17.02;52.07;99160.28;4191783;28;21627;-88
2022/03/25 09:01:28;;;;;;;34.37;24.43;;;;;;;17.14;54.42;99155.88;4189615;28;20643;-87
2022/03/25 09:03:32;;;;;;;35.27;25.50;;;;;;;17.25;51.99;99161.19;4191801;28;20631;-87
2022/03/25 09:05:35;;;;;;;43.47;26.23;;;;;;;17.35;52.50;99156.84;4192202;28;20648;-88
2022/03/25 09:07:40;;;;;;;33.17;25.80;;;;;;;17.44;52.16;99156.97;4190013;28;20628;-87
2022/03/25 09:09:43;;;;;;;35.57;25.43;;;;;;;17.51;52.15;99156.38;4189052;28;20623;-87
2022/03/25 09:11:46;;;;;;;33.93;24.97;;;;;;;17.67;53.02;99151.53;4189141;28;20628;-87
2022/03/25 09:13:49;;;;;;;38.17;25.73;;;;;;;17.71;50.47;99149.50;4193453;28;21256;-87
2022/03/25 09:15:54;;;;;;;36.53;26.33;;;;;;;17.77;52.85;99151.63;4175612;28;21038;-87
2022/03/25 09:17:57;;;;;;;36.07;25.53;;;;;;;17.90;53.94;99152.34;4174147;28;20681;-87
2022/03/25 09:20:00;;;;;;;35.90;26.10;;;;;;;17.99;50.94;99155.06;4187715;28;20663;-87
2022/03/25 09:22:03;;;;;;;36.03;25.40;;;;;;;18.02;51.73;99154.81;4188405;28;20660;-87
2022/03/25 09:24:07;;;;;;;39.40;25.90;;;;;;;18.11;52.65;99152.25;4188973;28;20628;-87
2022/03/25 09:26:10;;;;;;;33.93;24.40;;;;;;;18.14;50.00;99157.31;4187357;28;21051;-87
2022/03/25 09:28:13;;;;;;;36.73;25.37;;;;;;;18.15;51.32;99155.53;4189505;28;21014;-87
2022/03/25 09:30:16;;;;;;;36.53;25.80;;;;;;;18.18;49.61;99150.00;4191531;28;20682;-87
2022/03/25 09:32:38;;;;;;;33.50;24.50;;;;;;;18.26;51.94;99158.13;4176617;28;20624;-87
2022/03/25 09:37:02;;;;;;;37.83;25.90;;;;;;;18.47;51.16;99152.75;4177884;28;20652;-87
2022/03/25 09:39:05;;;;;;;33.80;24.50;;;;;;;18.54;52.59;99153.94;4177164;28;20996;-87
2022/03/25 09:41:09;;;;;;;35.13;25.40;;;;;;;18.68;52.47;99156.25;4174769;28;20632;-88
2022/03/25 09:43:12;;;;;;;36.77;25.97;;;;;;;18.85;51.26;99162.75;4173300;28;21004;-87